« Back
NWS Peachtree City, Ga » Text Product » CSG Terminal Aerodrome Forecast


Printer-friendly Version
Current Version              Previous Versions:   1  2  3  4  5  6  7  8  9  

Terminal Aerodrome Forecast

376
FTUS42 KFFC 231900 AAA
TAFCSG
TAF AMD
KCSG 231941Z 2320/2418 26006KT P6SM VCSH BKN045
     FM240000 28004KT P6SM SCT045
     FM241500 25008G15KT P6SM BKN035
     FM241700 25008G15KT P6SM VCSH BKN035=

USA.gov is the U.S. government's official web portal to all federal, state and local government web resources and services.